Time;durP1;ratioP1;P1;durP2;ratioP2;P2;SDS_P1;SDS_P2;PMS_P1;PMS_P2;Temp;Humidity;BMP_temperature;BMP_pressure;BME280_temperature;BME280_humidity;BME280_pressure;Samples;Min_cycle;Max_cycle;Signal;HPM_P1;HPM_P2
2021/10/24 00:00:02;;;;;;;0.50;0.40;;;6.60;99.90;;;;;;5025960;28;20197;-80
2021/10/24 00:02:28;;;;;;;0.50;0.40;;;6.60;99.90;;;;;;5026880;28;20189;-79
2021/10/24 00:04:55;;;;;;;2.05;1.95;;;6.70;99.90;;;;;;5027557;28;20196;-81
2021/10/24 00:07:22;;;;;;;0.50;0.50;;;6.80;99.90;;;;;;5030517;28;20212;-80
2021/10/24 00:09:49;;;;;;;0.80;0.77;;;6.80;99.90;;;;;;5029961;28;20197;-80
2021/10/24 00:12:18;;;;;;;0.50;0.40;;;6.80;99.90;;;;;;5029784;28;20223;-80
2021/10/24 00:14:45;;;;;;;0.50;0.40;;;6.80;99.90;;;;;;5030332;28;20201;-80
2021/10/24 00:17:12;;;;;;;0.50;0.40;;;6.70;99.90;;;;;;5029990;28;20220;-80
2021/10/24 00:19:39;;;;;;;0.50;0.40;;;6.70;99.90;;;;;;5026925;28;20197;-82
2021/10/24 00:22:06;;;;;;;0.50;0.40;;;6.70;99.90;;;;;;5019032;28;20272;-82
2021/10/24 00:24:33;;;;;;;0.50;0.40;;;6.60;99.90;;;;;;5019240;28;20205;-82
2021/10/24 00:27:00;;;;;;;0.50;0.40;;;6.70;99.90;;;;;;5018377;28;20217;-82
2021/10/24 00:29:28;;;;;;;0.50;0.40;;;6.70;99.90;;;;;;5019356;28;20196;-81
2021/10/24 00:31:55;;;;;;;0.50;0.40;;;6.70;99.90;;;;;;5018307;28;20216;-81
2021/10/24 00:34:22;;;;;;;0.50;0.40;;;6.70;99.90;;;;;;5027006;28;20673;-81
2021/10/24 00:36:49;;;;;;;0.50;0.50;;;6.70;99.90;;;;;;5018018;28;20232;-82
2021/10/24 00:39:15;;;;;;;0.50;0.40;;;6.70;99.90;;;;;;5018816;28;20208;-82
2021/10/24 00:41:43;;;;;;;0.50;0.50;;;6.70;99.90;;;;;;5018709;28;20200;-82
2021/10/24 00:44:23;;;;;;;0.50;0.40;;;6.70;99.90;;;;;;5018313;28;20192;-81
2021/10/24 00:46:53;;;;;;;1.35;1.17;;;6.80;99.90;;;;;;5018221;28;20220;-81
2021/10/24 00:49:21;;;;;;;0.50;0.40;;;6.80;99.90;;;;;;5018363;28;20204;-81
2021/10/24 00:51:49;;;;;;;0.50;0.50;;;6.80;99.90;;;;;;5017586;28;20227;-82
2021/10/24 00:54:18;;;;;;;0.65;0.63;;;6.80;99.90;;;;;;5017972;28;20197;-79
2021/10/24 00:56:47;;;;;;;1.13;1.02;;;6.80;99.90;;;;;;5017797;28;20217;-83
2021/10/24 00:59:14;;;;;;;0.85;0.85;;;6.80;99.90;;;;;;5018013;28;20222;-81
2021/10/24 01:01:40;;;;;;;0.50;0.40;;;6.80;99.90;;;;;;5018472;28;20193;-81
2021/10/24 01:04:09;;;;;;;0.50;0.40;;;6.90;99.90;;;;;;5017230;28;20207;-82
2021/10/24 01:06:37;;;;;;;0.50;0.40;;;6.80;99.90;;;;;;5018168;28;20216;-82
2021/10/24 01:09:05;;;;;;;0.50;0.40;;;6.80;99.90;;;;;;5018183;28;20193;-82
2021/10/24 01:11:32;;;;;;;0.50;0.40;;;6.80;99.90;;;;;;5017310;28;20206;-82
2021/10/24 01:14:00;;;;;;;0.50;0.40;;;6.70;99.90;;;;;;5018165;28;20555;-81
2021/10/24 01:16:27;;;;;;;0.70;0.70;;;6.80;99.90;;;;;;5016766;28;20227;-81
2021/10/24 01:18:54;;;;;;;0.50;0.40;;;6.80;99.90;;;;;;5017996;28;20204;-81
2021/10/24 01:21:22;;;;;;;0.50;0.50;;;6.90;99.90;;;;;;5016821;28;20562;-81
2021/10/24 01:23:48;;;;;;;0.50;0.40;;;6.80;99.90;;;;;;5017987;28;20209;-81
2021/10/24 01:26:15;;;;;;;0.50;0.40;;;6.80;99.90;;;;;;5017514;28;20221;-81
2021/10/24 01:28:42;;;;;;;0.65;0.65;;;6.80;99.90;;;;;;5017604;28;20607;-81
2021/10/24 01:31:09;;;;;;;0.50;0.40;;;6.90;99.90;;;;;;5017370;28;20193;-82
2021/10/24 01:33:36;;;;;;;0.50;0.40;;;6.90;99.90;;;;;;5017015;28;20721;-81
2021/10/24 01:36:05;;;;;;;0.50;0.50;;;6.90;99.90;;;;;;5017130;28;20234;-81
2021/10/24 01:38:34;;;;;;;0.77;0.77;;;6.90;99.90;;;;;;5017610;28;20184;-81
2021/10/24 01:41:01;;;;;;;0.50;0.40;;;6.80;99.90;;;;;;5016556;28;20219;-81
2021/10/24 01:43:29;;;;;;;0.50;0.38;;;6.90;99.90;;;;;;5017405;28;20189;-81
2021/10/24 01:45:56;;;;;;;1.58;1.48;;;6.90;99.90;;;;;;5017405;28;20204;-81
2021/10/24 01:48:24;;;;;;;0.50;0.40;;;6.90;99.90;;;;;;5017225;28;20201;-81
2021/10/24 01:50:52;;;;;;;0.50;0.40;;;6.90;99.90;;;;;;5016852;28;20204;-78
2021/10/24 01:53:20;;;;;;;0.50;0.40;;;6.90;99.90;;;;;;5017008;28;20589;-81
2021/10/24 01:55:49;;;;;;;0.50;0.40;;;6.80;99.90;;;;;;5017635;28;20204;-81
2021/10/24 01:58:16;;;;;;;0.50;0.40;;;6.80;99.90;;;;;;5017931;28;20196;-81
2021/10/24 02:00:44;;;;;;;0.50;0.40;;;6.80;99.90;;;;;;5015877;28;20192;-81
2021/10/24 02:03:12;;;;;;;0.50;0.40;;;6.80;99.90;;;;;;5016963;28;20204;-81
2021/10/24 02:05:39;;;;;;;0.50;0.40;;;6.70;99.90;;;;;;5016949;28;20713;-82
2021/10/24 02:08:07;;;;;;;0.50;0.40;;;6.70;99.90;;;;;;5016699;28;20214;-81
2021/10/24 02:10:34;;;;;;;0.50;0.40;;;6.70;99.90;;;;;;5016299;28;20581;-81
2021/10/24 02:13:02;;;;;;;0.50;0.40;;;6.70;99.90;;;;;;5016770;28;20244;-81
2021/10/24 02:15:29;;;;;;;1.55;1.50;;;6.70;99.90;;;;;;5016951;28;20666;-81
2021/10/24 02:17:56;;;;;;;0.50;0.40;;;6.70;99.90;;;;;;5016919;28;20737;-81
2021/10/24 02:20:23;;;;;;;0.50;0.40;;;6.70;99.90;;;;;;5016211;28;20201;-81
2021/10/24 02:22:50;;;;;;;0.50;0.40;;;6.60;99.90;;;;;;5016280;28;20192;-81
2021/10/24 02:25:17;;;;;;;0.50;0.40;;;6.60;99.90;;;;;;5016007;28;20693;-81
2021/10/24 02:27:44;;;;;;;0.50;0.40;;;6.60;99.90;;;;;;5016218;28;20219;-79
2021/10/24 02:30:13;;;;;;;0.50;0.40;;;6.60;99.90;;;;;;5016531;28;20228;-81
2021/10/24 02:32:41;;;;;;;0.50;0.40;;;6.50;99.90;;;;;;5015935;28;20216;-83
2021/10/24 02:35:10;;;;;;;0.50;0.40;;;6.50;99.90;;;;;;5015999;28;20210;-81
2021/10/24 02:37:36;;;;;;;0.50;0.40;;;6.50;99.90;;;;;;5015407;28;20236;-81
2021/10/24 02:42:45;;;;;;;0.50;0.40;;;6.40;99.90;;;;;;4998800;28;20671;-77
2021/10/24 02:45:13;;;;;;;0.50;0.50;;;6.40;99.90;;;;;;4992839;28;20194;-75
2021/10/24 02:47:40;;;;;;;0.50;0.40;;;6.40;99.90;;;;;;4992761;28;20204;-77
2021/10/24 02:50:08;;;;;;;0.50;0.40;;;6.40;99.90;;;;;;4992202;28;20666;-75
2021/10/24 02:52:35;;;;;;;0.50;0.40;;;6.40;99.90;;;;;;4991892;28;20256;-77
2021/10/24 02:55:02;;;;;;;0.50;0.40;;;6.40;99.90;;;;;;4993053;28;20197;-77
2021/10/24 02:57:29;;;;;;;0.50;0.40;;;6.50;99.90;;;;;;4992765;28;20201;-77
2021/10/24 02:59:56;;;;;;;0.50;0.40;;;6.50;99.90;;;;;;4992795;28;20251;-77
2021/10/24 03:02:24;;;;;;;0.50;0.50;;;6.40;99.90;;;;;;4992272;28;20217;-78
2021/10/24 03:04:51;;;;;;;0.50;0.40;;;6.40;99.90;;;;;;4992504;28;20220;-78
2021/10/24 03:07:18;;;;;;;0.50;0.40;;;6.40;99.90;;;;;;4992809;28;20544;-73
2021/10/24 03:09:44;;;;;;;0.50;0.40;;;6.30;99.90;;;;;;4992721;28;20197;-77
2021/10/24 03:12:11;;;;;;;0.60;0.40;;;6.30;99.90;;;;;;4991699;28;20227;-77
2021/10/24 03:14:38;;;;;;;0.50;0.40;;;6.30;99.90;;;;;;4992215;28;20201;-77
2021/10/24 03:17:04;;;;;;;0.50;0.40;;;6.20;99.90;;;;;;4992486;28;20205;-77
2021/10/24 03:19:33;;;;;;;0.50;0.40;;;6.10;99.90;;;;;;4991656;28;20281;-77
2021/10/24 03:22:00;;;;;;;0.50;0.40;;;6.10;99.90;;;;;;4992277;28;20224;-78
2021/10/24 03:24:27;;;;;;;1.13;0.82;;;6.20;99.90;;;;;;4992352;28;20634;-77
2021/10/24 03:26:54;;;;;;;0.50;0.40;;;6.20;99.90;;;;;;4991970;28;20674;-78
2021/10/24 03:29:21;;;;;;;0.73;0.70;;;6.20;99.90;;;;;;4992081;28;20205;-74
2021/10/24 03:31:47;;;;;;;0.50;0.50;;;6.10;99.90;;;;;;4991926;28;20240;-77
2021/10/24 03:34:14;;;;;;;0.50;0.40;;;6.10;99.90;;;;;;4991941;28;20224;-75
2021/10/24 03:36:42;;;;;;;0.50;0.50;;;6.10;99.90;;;;;;4992396;28;20569;-78
2021/10/24 03:39:09;;;;;;;0.50;0.40;;;6.10;99.90;;;;;;4991307;28;20204;-77
2021/10/24 03:41:36;;;;;;;1.15;1.15;;;6.00;99.90;;;;;;4991810;28;20576;-77
2021/10/24 03:44:03;;;;;;;0.50;0.40;;;6.00;99.90;;;;;;4992045;28;20197;-77
2021/10/24 03:46:31;;;;;;;0.50;0.40;;;6.00;99.90;;;;;;4992184;28;20212;-78
2021/10/24 03:48:58;;;;;;;0.75;0.75;;;5.90;99.90;;;;;;4991888;28;20232;-77
2021/10/24 03:51:24;;;;;;;1.70;0.73;;;6.00;99.90;;;;;;4991725;28;20224;-77
2021/10/24 03:53:53;;;;;;;0.60;0.60;;;6.00;99.90;;;;;;4991163;28;20316;-77
2021/10/24 03:56:19;;;;;;;0.50;0.40;;;6.00;99.90;;;;;;4991863;28;20205;-77
2021/10/24 03:58:46;;;;;;;0.50;0.40;;;6.00;99.90;;;;;;4992436;28;20228;-78
2021/10/24 04:01:13;;;;;;;0.50;0.40;;;6.00;99.90;;;;;;4991253;28;20279;-77
2021/10/24 04:03:40;;;;;;;0.50;0.40;;;5.90;99.90;;;;;;4992051;28;20197;-77
2021/10/24 04:06:06;;;;;;;0.50;0.40;;;5.90;99.90;;;;;;4991931;28;20204;-77
2021/10/24 04:08:33;;;;;;;0.50;0.40;;;5.90;99.90;;;;;;4991916;28;20200;-77
2021/10/24 04:11:01;;;;;;;0.50;0.40;;;5.80;99.90;;;;;;4991365;28;20220;-77
2021/10/24 04:13:28;;;;;;;0.50;0.40;;;5.90;99.90;;;;;;4991506;28;20232;-77
2021/10/24 04:15:55;;;;;;;1.02;0.88;;;5.90;99.90;;;;;;4991905;28;20210;-77
2021/10/24 04:18:21;;;;;;;0.50;0.40;;;5.80;99.90;;;;;;4992029;28;20535;-78
2021/10/24 04:20:48;;;;;;;0.50;0.40;;;5.80;99.90;;;;;;4991284;28;20221;-77
2021/10/24 04:23:15;;;;;;;0.50;0.40;;;5.70;99.90;;;;;;4991502;28;20204;-77
2021/10/24 04:25:41;;;;;;;0.50;0.40;;;5.70;99.90;;;;;;4991465;28;20208;-77
2021/10/24 04:28:10;;;;;;;0.50;0.40;;;5.70;99.90;;;;;;4992086;28;20200;-78
2021/10/24 04:30:36;;;;;;;0.50;0.40;;;5.70;99.90;;;;;;4991405;28;20228;-77
2021/10/24 04:33:03;;;;;;;0.50;0.40;;;5.60;99.90;;;;;;4991522;28;20571;-77
2021/10/24 04:35:30;;;;;;;0.93;0.77;;;5.60;99.90;;;;;;4991056;28;20201;-77
2021/10/24 04:37:56;;;;;;;0.50;0.40;;;5.70;99.90;;;;;;4991737;28;20197;-78
2021/10/24 04:40:24;;;;;;;0.50;0.40;;;5.60;99.90;;;;;;4990938;28;20237;-78
2021/10/24 04:42:50;;;;;;;0.50;0.40;;;5.50;99.90;;;;;;4991862;28;20178;-77
2021/10/24 04:45:19;;;;;;;0.50;0.40;;;5.50;99.90;;;;;;4991746;28;20204;-78
2021/10/24 04:47:45;;;;;;;0.68;0.68;;;5.50;99.90;;;;;;4996530;28;20204;-77
2021/10/24 04:50:12;;;;;;;0.50;0.40;;;5.40;99.90;;;;;;4990995;28;20560;-77
2021/10/24 04:52:39;;;;;;;0.50;0.40;;;5.40;99.90;;;;;;4994270;28;20200;-78
2021/10/24 04:55:06;;;;;;;0.50;0.40;;;5.40;99.90;;;;;;4995222;28;20256;-77
2021/10/24 04:57:34;;;;;;;0.50;0.40;;;5.40;99.90;;;;;;4994697;28;20712;-77
2021/10/24 05:00:00;;;;;;;0.50;0.40;;;5.40;99.90;;;;;;4994581;28;20200;-78
2021/10/24 05:02:29;;;;;;;0.50;0.40;;;5.30;99.90;;;;;;4994682;28;20311;-78
2021/10/24 05:04:55;;;;;;;0.50;0.40;;;5.30;99.90;;;;;;4994324;28;20189;-77
2021/10/24 05:07:22;;;;;;;0.50;0.40;;;5.20;99.90;;;;;;4994893;28;20668;-76
2021/10/24 05:09:49;;;;;;;0.50;0.40;;;5.20;99.90;;;;;;4994561;28;20200;-79
2021/10/24 05:12:16;;;;;;;0.50;0.40;;;5.20;99.90;;;;;;4994440;28;20239;-77
2021/10/24 05:14:42;;;;;;;0.50;0.40;;;5.20;99.90;;;;;;4994769;28;20217;-77
2021/10/24 05:17:09;;;;;;;0.50;0.40;;;5.20;99.90;;;;;;4994365;28;20207;-77
2021/10/24 05:19:37;;;;;;;0.50;0.40;;;5.20;99.90;;;;;;4994211;28;20201;-77
2021/10/24 05:22:04;;;;;;;0.50;0.40;;;5.20;99.90;;;;;;4994425;28;20214;-77
2021/10/24 05:24:31;;;;;;;0.50;0.50;;;5.20;99.90;;;;;;4994418;28;20193;-77
2021/10/24 05:26:58;;;;;;;0.50;0.40;;;5.20;99.90;;;;;;4994431;28;20204;-77
2021/10/24 05:29:24;;;;;;;0.50;0.50;;;5.10;99.90;;;;;;4993940;28;20220;-77
2021/10/24 05:31:51;;;;;;;0.50;0.40;;;5.10;99.90;;;;;;4993524;28;20225;-77
2021/10/24 05:34:18;;;;;;;0.50;0.40;;;5.10;99.90;;;;;;4994257;28;20220;-78
2021/10/24 05:36:46;;;;;;;0.50;0.40;;;5.10;99.90;;;;;;4994372;28;20289;-77
2021/10/24 05:39:13;;;;;;;0.50;0.40;;;5.10;99.90;;;;;;4994043;28;20220;-77
2021/10/24 05:41:40;;;;;;;0.50;0.40;;;5.10;99.90;;;;;;4993756;28;20229;-77
2021/10/24 05:44:06;;;;;;;0.50;0.40;;;5.10;99.90;;;;;;4993626;28;20201;-77
2021/10/24 05:46:33;;;;;;;0.50;0.40;;;5.00;99.90;;;;;;4993669;28;20205;-78
2021/10/24 05:49:01;;;;;;;0.50;0.40;;;5.00;99.90;;;;;;4994134;28;20255;-77
2021/10/24 05:51:28;;;;;;;0.50;0.40;;;4.90;99.90;;;;;;4993799;28;20220;-78
2021/10/24 05:53:57;;;;;;;1.05;1.05;;;4.90;99.90;;;;;;4993021;28;20217;-77
2021/10/24 05:56:23;;;;;;;0.50;0.40;;;5.00;99.90;;;;;;4993784;28;20200;-77
2021/10/24 05:58:50;;;;;;;0.50;0.40;;;5.00;99.90;;;;;;4993463;28;20212;-78
2021/10/24 06:01:17;;;;;;;0.50;0.40;;;5.00;99.90;;;;;;4993157;28;20220;-78
2021/10/24 06:03:43;;;;;;;0.50;0.40;;;5.00;99.90;;;;;;4993254;28;20197;-77
2021/10/24 06:06:10;;;;;;;0.70;0.70;;;4.90;99.90;;;;;;4994090;28;20197;-76
2021/10/24 06:08:37;;;;;;;0.50;0.40;;;4.90;99.90;;;;;;4994188;28;20206;-77
2021/10/24 06:11:17;;;;;;;0.50;0.40;;;4.90;99.90;;;;;;4992879;28;20224;-77
2021/10/24 06:13:45;;;;;;;0.50;0.50;;;4.90;99.90;;;;;;4993431;28;20230;-76
2021/10/24 06:16:12;;;;;;;0.50;0.40;;;5.00;99.90;;;;;;4993897;28;20205;-76
2021/10/24 06:18:39;;;;;;;0.68;0.68;;;5.00;99.90;;;;;;4993456;28;20212;-76
2021/10/24 06:21:07;;;;;;;0.50;0.40;;;5.10;99.90;;;;;;4993077;28;20221;-76
2021/10/24 06:23:34;;;;;;;0.50;0.40;;;5.10;99.90;;;;;;4993237;28;20705;-76
2021/10/24 06:26:01;;;;;;;0.50;0.40;;;5.20;99.90;;;;;;4992663;28;20196;-76
2021/10/24 06:28:29;;;;;;;0.50;0.40;;;5.20;99.90;;;;;;4993323;28;20208;-76
2021/10/24 06:30:56;;;;;;;0.50;0.40;;;5.20;99.90;;;;;;4993013;28;20220;-76
2021/10/24 06:33:23;;;;;;;0.50;0.50;;;5.20;99.90;;;;;;4993073;28;20200;-76
2021/10/24 06:35:49;;;;;;;0.50;0.50;;;5.20;99.90;;;;;;4993082;28;20256;-76
2021/10/24 06:38:17;;;;;;;0.50;0.40;;;5.30;99.90;;;;;;4993183;28;20540;-76
2021/10/24 06:40:45;;;;;;;0.50;0.40;;;5.30;99.90;;;;;;4992570;28;20229;-76
2021/10/24 06:43:12;;;;;;;0.50;0.40;;;5.40;99.90;;;;;;4993393;28;20181;-76
2021/10/24 06:45:40;;;;;;;0.50;0.50;;;5.40;99.90;;;;;;4992621;28;20200;-74
2021/10/24 06:48:07;;;;;;;0.50;0.40;;;5.40;99.90;;;;;;4993095;28;20208;-76
2021/10/24 06:50:34;;;;;;;0.50;0.40;;;5.50;99.90;;;;;;4992130;28;20221;-77
2021/10/24 06:53:01;;;;;;;0.50;0.40;;;5.50;99.90;;;;;;4992138;28;20210;-76
2021/10/24 06:55:28;;;;;;;1.17;1.13;;;5.60;99.90;;;;;;4992666;28;20224;-76
2021/10/24 06:57:56;;;;;;;0.50;0.40;;;5.70;99.90;;;;;;4992581;28;20208;-76
2021/10/24 07:00:24;;;;;;;0.50;0.40;;;5.80;99.90;;;;;;4992075;28;20208;-76
2021/10/24 07:02:52;;;;;;;0.50;0.40;;;5.90;99.90;;;;;;4992378;28;20198;-76
2021/10/24 07:05:20;;;;;;;0.50;0.40;;;6.10;99.90;;;;;;4992739;28;20208;-76
2021/10/24 07:07:47;;;;;;;0.50;0.40;;;6.60;99.90;;;;;;4992850;28;20193;-76
2021/10/24 07:10:18;;;;;;;0.60;0.60;;;7.40;99.90;;;;;;4991546;28;20201;-77
2021/10/24 07:12:50;;;;;;;0.50;0.40;;;8.10;99.90;;;;;;4992800;28;20209;-76
2021/10/24 07:15:18;;;;;;;0.50;0.40;;;8.50;99.90;;;;;;4991488;28;20592;-76
2021/10/24 07:17:44;;;;;;;0.80;0.80;;;8.90;99.90;;;;;;4992237;28;20214;-77
2021/10/24 07:20:14;;;;;;;0.50;0.40;;;9.40;99.90;;;;;;4992095;28;20198;-76
2021/10/24 07:22:41;;;;;;;0.50;0.40;;;10.30;99.90;;;;;;4992337;28;20623;-77
2021/10/24 07:25:08;;;;;;;0.50;0.40;;;11.50;99.90;;;;;;4992146;28;20201;-77
2021/10/24 07:27:35;;;;;;;0.50;0.40;;;12.00;99.90;;;;;;4991991;28;20200;-77
2021/10/24 07:30:02;;;;;;;0.50;0.40;;;12.50;99.90;;;;;;4992442;28;20871;-77
2021/10/24 07:32:28;;;;;;;0.50;0.40;;;13.10;99.90;;;;;;4991945;28;20467;-77
2021/10/24 07:34:56;;;;;;;0.50;0.37;;;13.70;99.90;;;;;;4991834;28;20480;-77
2021/10/24 07:37:24;;;;;;;0.50;0.30;;;14.80;99.90;;;;;;4992732;28;20535;-77
2021/10/24 07:39:51;;;;;;;0.50;0.30;;;15.90;99.90;;;;;;4992968;28;20976;-77
2021/10/24 07:42:18;;;;;;;0.50;0.40;;;17.00;99.90;;;;;;4991759;28;20470;-77
2021/10/24 07:44:45;;;;;;;0.50;0.40;;;18.10;97.20;;;;;;4992431;28;20448;-77
2021/10/24 07:47:12;;;;;;;0.50;0.30;;;18.80;89.00;;;;;;4991638;28;20441;-77
2021/10/24 07:49:39;;;;;;;0.50;0.30;;;19.00;84.80;;;;;;4992080;28;20447;-78
2021/10/24 07:52:06;;;;;;;0.50;0.30;;;19.90;82.70;;;;;;4991770;28;20832;-77
2021/10/24 07:54:34;;;;;;;0.50;0.30;;;20.20;78.10;;;;;;4991704;28;21035;-77
2021/10/24 07:57:01;;;;;;;0.50;0.30;;;20.70;73.90;;;;;;4991722;28;20458;-77
2021/10/24 07:59:28;;;;;;;0.50;0.30;;;21.20;71.50;;;;;;4991696;28;20440;-78
2021/10/24 08:01:56;;;;;;;0.50;0.30;;;22.10;71.70;;;;;;4991573;28;20459;-77
2021/10/24 08:04:23;;;;;;;0.50;0.30;;;22.90;67.90;;;;;;4991859;28;20443;-78
2021/10/24 08:06:49;;;;;;;0.50;0.30;;;24.00;67.00;;;;;;4991848;28;20441;-75
2021/10/24 08:09:17;;;;;;;1.53;0.70;;;25.20;63.20;;;;;;4991677;28;20479;-75
2021/10/24 08:11:45;;;;;;;0.50;0.30;;;26.10;58.90;;;;;;4991637;28;20466;-75
2021/10/24 08:14:13;;;;;;;0.50;0.30;;;27.00;55.40;;;;;;4991601;28;20475;-75
2021/10/24 08:16:40;;;;;;;0.50;0.30;;;27.80;55.20;;;;;;4992621;28;20435;-75
2021/10/24 08:19:07;;;;;;;0.50;0.30;;;28.60;52.80;;;;;;4992027;28;20937;-75
2021/10/24 08:21:34;;;;;;;0.50;0.30;;;28.90;50.80;;;;;;4991309;28;20463;-76
2021/10/24 08:24:01;;;;;;;0.70;0.40;;;29.70;50.70;;;;;;4992290;28;20432;-75
2021/10/24 08:26:29;;;;;;;0.50;0.30;;;29.20;48.40;;;;;;4993963;28;20455;-75
2021/10/24 08:28:58;;;;;;;0.50;0.30;;;28.10;49.90;;;;;;4995822;28;20452;-75
2021/10/24 08:31:26;;;;;;;1.07;1.00;;;28.80;49.80;;;;;;4995290;28;20978;-76
2021/10/24 08:33:54;;;;;;;0.50;0.30;;;28.70;48.80;;;;;;4995324;28;20450;-75
2021/10/24 08:36:21;;;;;;;0.50;0.30;;;28.90;49.60;;;;;;4995592;28;20447;-75
2021/10/24 08:38:48;;;;;;;0.80;0.73;;;27.90;48.20;;;;;;4995201;28;20444;-75
2021/10/24 08:41:22;;;;;;;0.50;0.40;;;27.60;48.50;;;;;;4995877;28;20476;-75
2021/10/24 08:43:49;;;;;;;0.50;0.40;;;25.80;49.80;;;;;;4995395;28;20531;-75
2021/10/24 08:46:19;;;;;;;0.50;0.30;;;24.40;51.90;;;;;;4995104;28;20458;-75
2021/10/24 08:48:45;;;;;;;0.60;0.50;;;24.90;52.60;;;;;;4994876;28;20454;-75
2021/10/24 08:51:12;;;;;;;0.50;0.30;;;25.10;52.10;;;;;;4995017;28;20826;-73
2021/10/24 08:53:44;;;;;;;0.50;0.50;;;25.40;52.50;;;;;;4994499;28;20468;-76
2021/10/24 08:56:15;;;;;;;0.50;0.40;;;23.80;52.10;;;;;;4994829;28;20471;-75
2021/10/24 08:58:43;;;;;;;0.50;0.30;;;23.10;52.40;;;;;;4994871;28;20457;-75
2021/10/24 09:01:09;;;;;;;0.50;0.30;;;23.10;54.90;;;;;;4994920;28;20470;-76
2021/10/24 09:03:39;;;;;;;0.50;0.40;;;23.90;54.30;;;;;;4994867;28;20535;-76
2021/10/24 09:06:07;;;;;;;1.70;1.50;;;20.90;53.80;;;;;;4995102;28;20467;-76
2021/10/24 09:08:37;;;;;;;0.70;0.60;;;19.50;58.00;;;;;;4994935;28;20863;-76
2021/10/24 09:11:04;;;;;;;1.30;0.90;;;19.00;58.50;;;;;;4994069;28;20888;-76
2021/10/24 09:13:33;;;;;;;0.50;0.30;;;18.40;59.70;;;;;;4994810;28;20468;-76
2021/10/24 09:16:01;;;;;;;0.50;0.40;;;18.00;62.10;;;;;;4994503;28;20479;-76
2021/10/24 09:18:34;;;;;;;0.50;0.40;;;17.10;61.80;;;;;;4994083;28;20440;-75
2021/10/24 09:21:21;;;;;;;0.77;0.67;;;16.40;64.70;;;;;;4994301;28;20555;-76
2021/10/24 09:23:50;;;;;;;0.60;0.53;;;15.80;67.60;;;;;;4993479;28;20433;-75
2021/10/24 09:26:22;;;;;;;0.50;0.30;;;15.40;68.80;;;;;;4978403;28;20528;-75
2021/10/24 09:29:07;;;;;;;0.50;0.40;;;15.10;71.40;;;;;;4974424;28;20484;-74
2021/10/24 09:31:36;;;;;;;0.57;0.50;;;14.80;73.80;;;;;;4974230;28;20468;-77
2021/10/24 09:34:22;;;;;;;0.50;0.40;;;14.60;77.10;;;;;;4973673;28;20540;-76
2021/10/24 09:36:52;;;;;;;0.50;0.37;;;13.70;83.30;;;;;;4973824;28;20433;-77
2021/10/24 09:39:20;;;;;;;0.67;0.63;;;13.20;94.40;;;;;;4974528;28;20818;-77
2021/10/24 09:41:47;;;;;;;0.50;0.40;;;12.80;99.90;;;;;;4973755;28;20990;-77
2021/10/24 09:44:15;;;;;;;0.50;0.40;;;12.90;99.90;;;;;;4974718;28;20429;-77
2021/10/24 09:46:55;;;;;;;0.50;0.40;;;12.80;99.90;;;;;;4974041;28;20927;-77
2021/10/24 09:49:23;;;;;;;0.50;0.40;;;12.70;99.90;;;;;;4974466;28;20500;-75
2021/10/24 09:51:51;;;;;;;0.50;0.40;;;12.70;99.90;;;;;;4973949;28;20504;-76
2021/10/24 09:54:21;;;;;;;1.20;1.20;;;12.80;99.90;;;;;;4974363;28;20444;-77
2021/10/24 09:56:49;;;;;;;0.60;0.60;;;12.90;99.90;;;;;;4974245;28;20797;-78
2021/10/24 09:59:18;;;;;;;0.90;0.50;;;12.90;99.90;;;;;;4974490;28;20452;-77
2021/10/24 10:01:49;;;;;;;0.50;0.50;;;13.20;99.90;;;;;;4973633;28;20559;-76
2021/10/24 10:04:16;;;;;;;0.60;0.50;;;13.30;99.90;;;;;;4974305;28;20454;-73
2021/10/24 10:06:45;;;;;;;0.50;0.40;;;13.30;99.90;;;;;;4974422;28;20447;-76
2021/10/24 10:09:14;;;;;;;11.53;0.77;;;13.40;99.90;;;;;;4974204;28;20444;-76
2021/10/24 10:11:49;;;;;;;0.80;0.60;;;13.30;99.90;;;;;;4973774;28;20487;-77
2021/10/24 10:14:20;;;;;;;0.80;0.80;;;13.30;99.90;;;;;;4973916;28;20449;-74
2021/10/24 10:16:52;;;;;;;0.50;0.40;;;13.60;99.90;;;;;;4973588;28;20457;-78
2021/10/24 10:19:29;;;;;;;1.67;1.57;;;13.90;99.90;;;;;;4973850;28;20432;-77
2021/10/24 10:21:56;;;;;;;0.50;0.40;;;14.10;99.90;;;;;;4973348;28;20472;-78
2021/10/24 10:24:44;;;;;;;0.80;0.53;;;14.10;99.90;;;;;;4973792;28;20463;-79
2021/10/24 10:27:47;;;;;;;1.10;1.03;;;14.00;99.90;;;;;;4973296;28;20437;-76
2021/10/24 10:30:17;;;;;;;0.97;0.60;;;14.40;99.90;;;;;;4968805;28;20453;-77
2021/10/24 10:32:46;;;;;;;1.10;0.50;;;14.90;99.90;;;;;;4973176;28;20445;-77
2021/10/24 10:35:15;;;;;;;0.50;0.40;;;15.40;96.10;;;;;;4973611;28;20565;-76
2021/10/24 10:37:50;;;;;;;0.60;0.50;;;16.20;94.70;;;;;;4973464;28;20447;-76
2021/10/24 10:40:21;;;;;;;1.27;0.80;;;16.80;90.00;;;;;;4973424;28;20434;-76
2021/10/24 10:42:56;;;;;;;0.50;0.40;;;17.10;85.20;;;;;;4972983;28;20806;-76
2021/10/24 10:45:37;;;;;;;0.50;0.47;;;17.20;84.70;;;;;;4974046;28;20418;-76
2021/10/24 10:48:06;;;;;;;0.50;0.30;;;17.20;83.30;;;;;;4972938;28;20905;-76
2021/10/24 10:50:46;;;;;;;0.50;0.40;;;17.50;83.10;;;;;;4972627;28;20468;-77
2021/10/24 10:53:19;;;;;;;0.70;0.50;;;17.70;80.40;;;;;;4973622;28;20490;-76
2021/10/24 10:56:22;;;;;;;2.73;1.70;;;17.60;80.80;;;;;;4973284;28;20477;-76
2021/10/24 10:58:52;;;;;;;0.50;0.40;;;17.30;79.30;;;;;;4971075;28;20829;-77
2021/10/24 11:01:31;;;;;;;0.50;0.30;;;17.30;79.90;;;;;;4972755;28;20467;-76
2021/10/24 11:04:00;;;;;;;0.60;0.50;;;17.20;80.00;;;;;;4973597;28;20434;-76
2021/10/24 11:06:54;;;;;;;0.60;0.40;;;17.10;79.40;;;;;;4972878;28;20934;-77
2021/10/24 11:09:49;;;;;;;1.17;0.70;;;17.20;80.20;;;;;;4973067;28;20433;-77
2021/10/24 11:12:43;;;;;;;0.50;0.50;;;17.10;81.60;;;;;;4972254;28;20479;-75
2021/10/24 11:15:27;;;;;;;1.33;1.23;;;17.40;81.80;;;;;;4949124;28;20868;-78
2021/10/24 11:17:54;;;;;;;0.80;0.80;;;17.80;83.10;;;;;;4972892;28;20551;-77
2021/10/24 11:20:27;;;;;;;0.50;0.40;;;17.90;78.80;;;;;;4972775;28;20478;-77
2021/10/24 11:22:56;;;;;;;0.50;0.40;;;17.70;80.90;;;;;;4972946;28;20451;-77
2021/10/24 11:25:29;;;;;;;0.50;0.40;;;17.80;79.70;;;;;;4972688;28;20446;-77
2021/10/24 11:27:58;;;;;;;0.50;0.30;;;17.90;79.00;;;;;;4972763;28;20801;-77
2021/10/24 11:30:27;;;;;;;0.50;0.40;;;18.40;78.80;;;;;;4972284;28;20945;-77
2021/10/24 11:32:55;;;;;;;1.17;1.07;;;18.80;77.10;;;;;;4972688;28;20473;-77
2021/10/24 11:35:24;;;;;;;0.50;0.33;;;18.60;75.80;;;;;;4972521;28;20988;-77
2021/10/24 11:37:53;;;;;;;0.50;0.37;;;18.60;77.90;;;;;;4972919;28;20478;-77
2021/10/24 11:40:23;;;;;;;0.50;0.30;;;18.60;75.90;;;;;;4972005;28;20822;-77
2021/10/24 11:43:01;;;;;;;0.60;0.50;;;18.90;75.40;;;;;;4972852;28;20459;-77
2021/10/24 11:45:32;;;;;;;3.80;2.00;;;18.40;73.80;;;;;;4972817;28;20503;-77
2021/10/24 11:48:04;;;;;;;1.53;1.43;;;18.20;74.00;;;;;;4972585;28;20812;-77
2021/10/24 11:50:52;;;;;;;0.50;0.40;;;18.00;75.00;;;;;;4971911;28;20439;-77
2021/10/24 11:53:32;;;;;;;0.93;0.93;;;17.70;75.30;;;;;;4972691;28;20440;-75
2021/10/24 11:56:02;;;;;;;0.50;0.40;;;17.20;75.30;;;;;;4972425;28;20483;-77
2021/10/24 11:58:40;;;;;;;0.50;0.40;;;16.90;79.40;;;;;;4972421;28;20449;-77
2021/10/24 12:01:11;;;;;;;0.50;0.40;;;16.90;80.90;;;;;;4973664;28;20474;-76
2021/10/24 12:03:40;;;;;;;0.63;0.63;;;16.70;82.10;;;;;;4976358;28;20437;-77
2021/10/24 12:06:08;;;;;;;0.50;0.40;;;16.40;82.00;;;;;;4976283;28;20446;-77
2021/10/24 12:08:52;;;;;;;0.50;0.40;;;16.20;85.80;;;;;;4976118;28;20943;-76
2021/10/24 12:11:38;;;;;;;1.00;0.90;;;15.80;86.20;;;;;;4975216;28;20461;-77
2021/10/24 12:14:05;;;;;;;0.50;0.30;;;15.60;88.80;;;;;;4976179;28;20445;-77
2021/10/24 12:16:35;;;;;;;0.50;0.40;;;15.50;90.40;;;;;;4976012;28;20477;-76
2021/10/24 12:19:25;;;;;;;0.50;0.30;;;15.20;91.10;;;;;;4976406;28;20804;-76
2021/10/24 12:22:01;;;;;;;0.73;0.73;;;15.10;93.20;;;;;;4975803;28;20465;-76
2021/10/24 12:24:32;;;;;;;0.50;0.37;;;15.00;94.10;;;;;;4976294;28;20429;-76
2021/10/24 12:27:06;;;;;;;0.50;0.40;;;15.00;94.80;;;;;;4975862;28;20444;-77
2021/10/24 12:29:33;;;;;;;0.50;0.40;;;14.90;95.20;;;;;;4975890;28;20792;-77
2021/10/24 12:32:13;;;;;;;0.50;0.40;;;14.80;95.00;;;;;;4975443;28;20467;-76
2021/10/24 12:35:00;;;;;;;0.60;0.50;;;14.70;95.90;;;;;;4975860;28;20445;-77
2021/10/24 12:37:27;;;;;;;0.50;0.40;;;14.70;99.90;;;;;;4975290;28;20965;-76
2021/10/24 12:40:20;;;;;;;0.50;0.37;;;14.70;99.90;;;;;;4976106;28;20469;-77
2021/10/24 12:43:04;;;;;;;0.50;0.40;;;14.70;99.90;;;;;;4975491;28;20445;-76
2021/10/24 12:45:31;;;;;;;0.50;0.40;;;14.70;99.90;;;;;;4975938;28;20795;-75
2021/10/24 12:48:00;;;;;;;0.67;0.67;;;14.70;99.90;;;;;;4975150;28;20483;-76
2021/10/24 12:50:31;;;;;;;0.50;0.40;;;14.70;99.90;;;;;;4975135;28;20457;-76
2021/10/24 12:53:03;;;;;;;0.60;0.50;;;14.80;99.90;;;;;;4975780;28;20433;-77
2021/10/24 12:55:30;;;;;;;0.50;0.40;;;15.00;99.90;;;;;;4975657;28;20485;-76
2021/10/24 12:57:57;;;;;;;0.50;0.30;;;15.20;99.90;;;;;;4975246;28;20606;-78
2021/10/24 13:00:24;;;;;;;0.50;0.40;;;15.30;96.60;;;;;;4974644;28;20706;-76
2021/10/24 13:02:51;;;;;;;0.60;0.50;;;15.60;99.90;;;;;;4975429;28;20442;-76
2021/10/24 13:05:19;;;;;;;0.50;0.30;;;16.00;96.80;;;;;;4975681;28;20452;-77